createdAt,value
2023-04-15T00:05:05.603Z,100147.28
2023-04-15T00:12:49.868Z,100142.88
2023-04-15T00:20:56.128Z,100134.00
2023-04-15T00:28:56.154Z,100134.91
2023-04-15T00:36:42.255Z,100134.91
2023-04-15T00:44:20.167Z,100130.47
2023-04-15T00:51:54.003Z,100124.28
2023-04-15T00:59:45.415Z,100124.31
2023-04-15T01:07:19.440Z,100123.34
2023-04-15T01:15:21.834Z,100110.06
2023-04-15T01:22:56.867Z,100118.94
2023-04-15T01:30:59.758Z,100114.47
2023-04-15T01:38:34.327Z,100102.94
2023-04-15T01:54:30.322Z,100108.28
2023-04-15T02:02:13.014Z,100106.47
2023-04-15T02:10:01.605Z,100098.50
2023-04-15T02:17:59.065Z,100091.44
2023-04-15T02:25:36.023Z,100093.19
2023-04-15T02:33:26.637Z,100090.53
2023-04-15T02:41:00.428Z,100085.19
2023-04-15T02:48:49.421Z,100097.63
2023-04-15T02:56:44.980Z,100091.41
2023-04-15T03:04:37.206Z,100100.31
2023-04-15T03:12:11.016Z,100095.00
2023-04-15T03:20:02.365Z,100100.38
2023-04-15T03:27:39.630Z,100099.50
2023-04-15T03:35:20.955Z,100103.06
2023-04-15T03:59:01.533Z,100105.81
2023-04-15T04:06:45.665Z,100110.28
2023-04-15T04:14:29.741Z,100105.00
2023-04-15T04:22:13.576Z,100114.78
2023-04-15T04:29:56.819Z,100116.59
2023-04-15T04:38:03.952Z,100115.75
2023-04-15T04:45:41.408Z,100114.00
2023-04-15T05:01:21.947Z,100123.91
2023-04-15T05:09:20.776Z,100122.16
2023-04-15T05:17:02.174Z,100133.75
2023-04-15T05:32:49.275Z,100145.34
2023-04-15T05:40:24.485Z,100145.38
2023-04-15T05:48:04.390Z,100146.31
2023-04-15T05:55:45.585Z,100140.16
2023-04-15T06:03:25.965Z,100147.38
2023-04-15T06:11:50.681Z,100142.16
2023-04-15T06:19:54.519Z,100141.38
2023-04-15T06:27:31.118Z,100144.91
2023-04-15T06:35:16.035Z,100153.88
2023-04-15T06:42:56.504Z,100163.72
2023-04-15T06:50:31.768Z,100173.63
2023-04-15T06:58:05.835Z,100187.03
2023-04-15T07:05:42.586Z,100196.13
2023-04-15T07:13:23.994Z,100196.22
2023-04-15T07:28:56.287Z,100215.03
2023-04-15T07:36:31.527Z,100217.72
2023-04-15T07:44:14.204Z,100214.09
2023-04-15T07:51:57.821Z,100223.91
2023-04-15T07:59:33.481Z,100223.09
2023-04-15T08:07:16.346Z,100231.13
2023-04-15T08:14:57.780Z,100240.00
2023-04-15T08:22:39.165Z,100248.91
2023-04-15T08:30:19.388Z,100258.69
2023-04-15T08:38:02.006Z,100264.91
2023-04-15T08:45:43.309Z,100262.19
2023-04-15T08:53:34.135Z,100271.06
2023-04-15T09:33:24.071Z,100291.59
2023-04-15T09:41:24.373Z,100305.88
2023-04-15T09:49:26.681Z,100305.88
2023-04-15T09:57:15.803Z,100316.53
2023-04-15T10:04:58.022Z,100330.75
2023-04-15T10:12:33.638Z,100323.63
2023-04-15T10:20:56.402Z,100337.00
2023-04-15T10:28:50.906Z,100339.69
2023-04-15T10:36:48.463Z,100345.94
2023-04-15T10:44:31.306Z,100343.28
2023-04-15T10:52:11.438Z,100348.69
2023-04-15T11:00:14.500Z,100346.94
2023-04-15T11:08:13.477Z,100361.22
2023-04-15T11:48:48.743Z,100402.19
2023-04-15T11:56:28.858Z,100403.09
2023-04-15T12:04:28.802Z,100407.56
2023-04-15T12:12:03.012Z,100413.84
2023-04-15T12:19:45.659Z,100420.16
2023-04-15T12:27:19.555Z,100422.88
2023-04-15T12:43:02.070Z,100448.75
2023-04-15T12:50:42.014Z,100444.31
2023-04-15T12:58:15.902Z,100455.13
2023-04-15T13:05:53.893Z,100457.78
2023-04-15T13:13:35.350Z,100463.16
2023-04-15T13:21:18.940Z,100467.69
2023-04-15T13:29:14.528Z,100469.53
2023-04-15T13:36:49.942Z,100472.22
2023-04-15T13:44:26.599Z,100479.34
2023-04-15T13:52:02.162Z,100488.25
2023-04-15T13:59:44.061Z,100492.66
2023-04-15T14:07:26.985Z,100505.13
2023-04-15T14:15:07.645Z,100510.50
2023-04-15T14:22:56.222Z,100528.31
2023-04-15T14:38:31.454Z,100539.78
2023-04-15T14:54:03.431Z,100555.81
2023-04-15T15:01:41.020Z,100571.88
2023-04-15T15:09:29.336Z,100578.00
2023-04-15T15:17:12.300Z,100576.22
2023-04-15T15:24:47.752Z,100586.91
2023-04-15T15:32:32.128Z,100594.00
2023-04-15T15:40:22.870Z,100602.84
2023-04-15T15:48:08.786Z,100604.63
2023-04-15T15:55:51.108Z,100615.31
2023-04-15T16:03:32.315Z,100626.91
2023-04-15T16:11:31.100Z,100629.56
2023-04-15T16:19:05.126Z,100638.47
2023-04-15T16:26:49.462Z,100632.22
2023-04-15T16:34:48.479Z,100642.00
2023-04-15T16:50:32.422Z,100653.50
2023-04-15T16:58:14.943Z,100668.63
2023-04-15T17:05:54.999Z,100673.09
2023-04-15T17:13:36.594Z,100687.34
2023-04-15T17:21:19.797Z,100694.47
2023-04-15T17:28:55.025Z,100710.50
2023-04-15T17:44:30.366Z,100724.69
2023-04-15T17:52:08.351Z,100721.94
2023-04-15T18:00:17.982Z,100741.53
2023-04-15T18:07:59.180Z,100751.31
2023-04-15T18:23:49.695Z,100772.69
2023-04-15T18:31:23.703Z,100784.22
2023-04-15T18:47:13.916Z,100802.81
2023-04-15T19:02:57.428Z,100824.38
2023-04-15T19:19:51.805Z,100834.94
2023-04-15T19:28:02.916Z,100844.69
2023-04-15T19:36:42.067Z,100846.47
2023-04-15T19:44:34.878Z,100863.34
2023-04-15T19:52:41.864Z,100856.19
2023-04-15T20:00:43.171Z,100864.19
2023-04-15T20:08:53.089Z,100862.31
2023-04-15T20:16:30.572Z,100862.31
2023-04-15T20:24:19.394Z,100864.94
2023-04-15T20:40:30.723Z,100881.72
2023-04-15T20:48:11.098Z,100877.25
2023-04-15T20:56:13.412Z,100889.69
2023-04-15T21:03:58.830Z,100887.03
2023-04-15T21:19:30.594Z,100905.69
2023-04-15T21:27:35.696Z,100918.97
2023-04-15T21:35:41.131Z,100928.72
2023-04-15T21:43:16.904Z,100932.34
2023-04-15T21:50:50.716Z,100940.25
2023-04-15T21:58:54.663Z,100941.25
2023-04-15T22:06:46.930Z,100955.41
2023-04-15T22:14:59.304Z,100965.22
2023-04-15T22:22:43.514Z,100974.16
2023-04-15T22:30:35.828Z,100986.59
2023-04-15T22:38:12.511Z,100993.63
2023-04-15T22:54:00.222Z,101001.56
2023-04-15T23:01:43.338Z,101008.66
2023-04-15T23:17:10.300Z,101019.28
2023-04-15T23:25:09.298Z,101021.88
2023-04-15T23:32:46.359Z,101027.16
2023-04-15T23:40:48.320Z,101028.94
2023-04-15T23:48:25.174Z,101032.38
